Terminal Aerodrome Forecast
Issued by NWS Paducah, KY

Home | Current Version | Previous Version | Text Only | Print | Product List | Glossary On
Versions: 1 2 3 4 5 6 7 8 9 10 11 12 13
287
FTUS43 KPAH 041818 AAA
TAFPAH
TAF AMD
KPAH 041818Z 0418/0518 33013G24KT P6SM SCT200
     FM042300 32006KT P6SM SKC
     FM051400 34012G20KT P6SM FEW250=

USA.gov is the U.S. government's official web portal to all federal, state and local government web resources and services.